Time,TemperatureF,DewpointF,PressureIn,WindDirection,WindDirectionDegrees,WindSpeedMPH,WindSpeedGustMPH,Humidity,HourlyPrecipIn,Conditions,Clouds,dailyrainin,SolarRadiationWatts/m^2,SoftwareType,DateUTC
2013-03-11 00:32:00,46.0,41.0,-100.00,NNE,23,0.0,0.0,83,-99.99,,,0.00,0.000000,,2013-03-11 07:32:00,
2013-03-11 01:33:00,45.0,41.0,-100.00,ENE,59,0.0,0.0,85,0.00,,,0.00,0.000000,,2013-03-11 08:33:00,
2013-03-11 02:32:00,44.0,41.0,-100.00,NE,37,0.0,0.0,89,0.00,,,0.00,0.000000,,2013-03-11 09:32:00,
2013-03-11 02:42:00,44.0,41.0,-100.00,NE,37,0.0,0.0,89,0.00,,,0.00,0.000000,,2013-03-11 09:42:00,
2013-03-11 02:52:00,44.0,41.0,-100.00,NE,37,0.0,0.0,89,0.00,,,0.00,0.000000,,2013-03-11 09:52:00,
2013-03-11 03:02:00,44.0,41.0,-100.00,NE,37,0.0,0.0,89,0.00,,,0.00,0.000000,,2013-03-11 10:02:00,
2013-03-11 03:33:00,44.0,41.0,-100.00,SSW,196,0.0,0.0,90,0.00,,,0.00,0.000000,,2013-03-11 10:33:00,
2013-03-11 04:33:00,45.0,42.0,-100.00,NNE,26,0.0,0.0,90,0.00,,,-99.99,0.000000,,2013-03-11 11:33:00,
2013-03-11 05:33:00,43.0,40.0,-100.00,West,280,0.0,0.0,90,-99.99,,,-99.99,0.000000,,2013-03-11 12:33:00,
2013-03-11 05:43:00,43.0,40.0,-100.00,West,280,0.0,0.0,90,-99.99,,,-99.99,0.000000,,2013-03-11 12:43:00,
2013-03-11 05:53:00,43.0,40.0,-100.00,West,280,0.0,0.0,90,-99.99,,,-99.99,0.000000,,2013-03-11 12:53:00,
2013-03-11 06:02:00,43.0,40.0,-100.00,West,280,0.0,0.0,90,-99.99,,,-99.99,0.000000,,2013-03-11 13:02:00,
2013-03-11 06:33:00,42.0,40.0,-100.00,SW,231,0.0,0.0,92,0.00,,,-99.99,0.000000,,2013-03-11 13:33:00,
2013-03-11 06:43:00,42.0,40.0,-100.00,SW,231,0.0,0.0,92,0.00,,,-99.99,0.000000,,2013-03-11 13:43:00,
2013-03-11 06:52:00,42.0,40.0,-100.00,SW,231,0.0,0.0,92,0.00,,,-99.99,0.000000,,2013-03-11 13:52:00,
2013-03-11 07:01:00,42.0,40.0,-100.00,SW,231,0.0,0.0,92,0.00,,,-99.99,0.000000,,2013-03-11 14:01:00,
2013-03-11 07:33:00,43.0,41.0,-100.00,NE,54,0.0,0.0,93,0.00,,,0.00,0.000000,,2013-03-11 14:33:00,
2013-03-11 07:42:00,43.0,41.0,-100.00,NE,54,0.0,0.0,93,0.00,,,0.00,0.000000,,2013-03-11 14:42:00,
2013-03-11 07:53:00,43.0,41.0,-100.00,NE,54,0.0,0.0,93,0.00,,,0.00,0.000000,,2013-03-11 14:53:00,
2013-03-11 08:02:00,43.0,41.0,-100.00,NE,54,0.0,0.0,93,0.00,,,0.00,0.000000,,2013-03-11 15:02:00,
2013-03-11 08:32:00,43.0,41.0,-100.00,NE,38,0.0,0.0,93,0.00,,,0.00,8.000000,,2013-03-11 15:32:00,
2013-03-11 08:43:00,43.0,41.0,-100.00,NE,38,0.0,0.0,93,0.00,,,0.00,8.000000,,2013-03-11 15:43:00,
2013-03-11 08:53:00,43.0,41.0,-100.00,NE,38,0.0,0.0,93,0.00,,,0.00,8.000000,,2013-03-11 15:53:00,
2013-03-11 09:02:00,43.0,41.0,-100.00,NE,38,0.0,0.0,93,0.00,,,0.00,8.000000,,2013-03-11 16:02:00,
2013-03-11 09:32:00,44.0,36.0,-100.00,SSE,153,0.0,0.0,74,0.00,,,0.00,60.000000,,2013-03-11 16:32:00,
2013-03-11 09:43:00,44.0,36.0,-100.00,SSE,153,0.0,0.0,74,0.00,,,0.00,60.000000,,2013-03-11 16:43:00,
2013-03-11 09:52:00,44.0,36.0,-100.00,SSE,153,0.0,0.0,74,0.00,,,0.00,60.000000,,2013-03-11 16:52:00,
2013-03-11 10:02:00,44.0,36.0,-100.00,SSE,153,0.0,0.0,74,0.00,,,0.00,60.000000,,2013-03-11 17:02:00,
2013-03-11 10:38:00,46.0,36.0,-100.00,East,85,0.0,0.0,68,0.00,,,-99.99,125.000000,,2013-03-11 17:38:00,
2013-03-11 11:02:00,46.0,36.0,-100.00,East,85,0.0,0.0,68,0.00,,,-99.99,125.000000,,2013-03-11 18:02:00,
2013-03-11 11:33:00,47.0,39.0,-100.00,NE,48,0.0,0.0,74,0.00,,,-99.99,156.000000,,2013-03-11 18:33:00,
2013-03-11 11:42:00,47.0,39.0,-100.00,NE,48,0.0,0.0,74,0.00,,,-99.99,156.000000,,2013-03-11 18:42:00,
2013-03-11 11:53:00,47.0,39.0,-100.00,NE,48,0.0,0.0,74,0.00,,,-99.99,156.000000,,2013-03-11 18:53:00,
2013-03-11 12:02:00,47.0,39.0,-100.00,NE,48,0.0,0.0,74,0.00,,,-99.99,156.000000,,2013-03-11 19:02:00,
2013-03-11 12:33:00,50.0,42.0,-100.00,NE,49,0.0,0.0,73,0.00,,,0.00,249.000000,,2013-03-11 19:33:00,
2013-03-11 13:33:00,49.0,42.0,-100.00,North,352,0.0,0.0,77,0.00,,,0.00,132.000000,,2013-03-11 20:33:00,
2013-03-11 13:44:00,49.0,42.0,-100.00,North,352,0.0,0.0,77,0.00,,,0.00,132.000000,,2013-03-11 20:44:00,
2013-03-11 13:53:00,49.0,42.0,-100.00,North,352,0.0,0.0,77,0.00,,,0.00,132.000000,,2013-03-11 20:53:00,
2013-03-11 14:02:00,49.0,42.0,-100.00,North,352,0.0,0.0,77,0.00,,,0.00,132.000000,,2013-03-11 21:02:00,
2013-03-11 14:33:00,49.0,44.0,-100.00,WSW,247,0.0,0.0,84,0.00,,,0.00,151.000000,,2013-03-11 21:33:00,
2013-03-11 14:44:00,49.0,44.0,-100.00,WSW,247,0.0,0.0,84,0.00,,,0.00,151.000000,,2013-03-11 21:44:00,
2013-03-11 14:53:00,49.0,44.0,-100.00,WSW,247,0.0,0.0,84,0.00,,,0.00,151.000000,,2013-03-11 21:53:00,
2013-03-11 15:02:00,49.0,44.0,-100.00,WSW,247,0.0,0.0,84,0.00,,,0.00,151.000000,,2013-03-11 22:02:00,
2013-03-11 15:32:00,49.0,47.0,-100.00,SW,229,0.0,0.0,92,0.01,,,0.01,138.000000,,2013-03-11 22:32:00,
2013-03-11 15:43:00,49.0,47.0,-100.00,SW,229,0.0,0.0,92,0.01,,,0.01,138.000000,,2013-03-11 22:43:00,
2013-03-11 15:53:00,49.0,47.0,-100.00,SW,229,0.0,0.0,92,0.01,,,0.01,138.000000,,2013-03-11 22:53:00,
2013-03-11 16:02:00,49.0,47.0,-100.00,SW,229,0.0,0.0,92,0.01,,,0.01,138.000000,,2013-03-11 23:02:00,
2013-03-11 16:33:00,49.0,48.0,-100.00,WSW,244,0.0,0.0,95,0.00,,,0.01,86.000000,,2013-03-11 23:33:00,
2013-03-11 16:43:00,49.0,48.0,-100.00,WSW,244,0.0,0.0,95,0.00,,,0.01,86.000000,,2013-03-11 23:43:00,
2013-03-11 16:53:00,49.0,48.0,-100.00,WSW,244,0.0,0.0,95,0.00,,,0.01,86.000000,,2013-03-11 23:53:00,
2013-03-11 17:02:00,49.0,48.0,-100.00,WSW,244,0.0,0.0,95,0.00,,,0.01,86.000000,,2013-03-12 00:02:00,
2013-03-11 17:33:00,49.0,48.0,-100.00,ENE,73,0.0,0.0,96,0.00,,,0.01,43.000000,,2013-03-12 00:33:00,
2013-03-11 17:43:00,49.0,48.0,-100.00,ENE,73,0.0,0.0,96,0.00,,,0.01,43.000000,,2013-03-12 00:43:00,
2013-03-11 17:53:00,49.0,48.0,-100.00,ENE,73,0.0,0.0,96,0.00,,,0.01,43.000000,,2013-03-12 00:53:00,
2013-03-11 18:02:00,49.0,48.0,-100.00,ENE,73,0.0,0.0,96,0.00,,,0.01,43.000000,,2013-03-12 01:02:00,
2013-03-11 18:33:00,47.0,46.0,-100.00,WNW,284,0.0,0.0,96,0.00,,,0.01,34.000000,,2013-03-12 01:33:00,
2013-03-11 18:42:00,47.0,46.0,-100.00,WNW,284,0.0,0.0,96,0.00,,,0.01,34.000000,,2013-03-12 01:42:00,
2013-03-11 18:52:00,47.0,46.0,-100.00,WNW,284,0.0,0.0,96,0.00,,,0.01,34.000000,,2013-03-12 01:52:00,
2013-03-11 19:02:00,47.0,46.0,-100.00,WNW,284,0.0,0.0,96,0.00,,,0.01,34.000000,,2013-03-12 02:02:00,
2013-03-11 19:32:00,48.0,48.0,-100.00,SW,231,0.0,0.0,100,0.00,,,0.01,2.000000,,2013-03-12 02:32:00,
2013-03-11 19:43:00,48.0,48.0,-100.00,SW,231,0.0,0.0,100,0.00,,,0.01,2.000000,,2013-03-12 02:43:00,
2013-03-11 19:52:00,48.0,48.0,-100.00,SW,231,0.0,0.0,100,0.00,,,0.01,2.000000,,2013-03-12 02:52:00,
2013-03-11 20:02:00,48.0,48.0,-100.00,SW,231,0.0,0.0,100,0.00,,,0.01,2.000000,,2013-03-12 03:02:00,
2013-03-11 20:32:00,48.0,48.0,-100.00,South,177,0.0,0.0,100,0.00,,,0.01,0.000000,,2013-03-12 03:32:00,
2013-03-11 20:42:00,48.0,48.0,-100.00,South,177,0.0,0.0,100,0.00,,,0.01,0.000000,,2013-03-12 03:42:00,
2013-03-11 20:52:00,48.0,48.0,-100.00,South,177,0.0,0.0,100,0.00,,,0.01,0.000000,,2013-03-12 03:52:00,
2013-03-11 21:02:00,48.0,48.0,-100.00,South,177,0.0,0.0,100,0.00,,,0.01,0.000000,,2013-03-12 04:02:00,
2013-03-11 21:32:00,47.0,47.0,-100.00,ENE,73,0.0,0.0,100,-99.99,,,0.01,0.000000,,2013-03-12 04:32:00,
2013-03-11 21:43:00,47.0,47.0,-100.00,ENE,73,0.0,0.0,100,-99.99,,,0.01,0.000000,,2013-03-12 04:43:00,
2013-03-11 21:52:00,47.0,47.0,-100.00,ENE,73,0.0,0.0,100,-99.99,,,0.01,0.000000,,2013-03-12 04:52:00,
2013-03-11 22:02:00,47.0,47.0,-100.00,ENE,73,0.0,0.0,100,-99.99,,,0.01,0.000000,,2013-03-12 05:02:00,
2013-03-11 22:32:00,47.0,47.0,-100.00,ESE,122,0.0,0.0,100,0.01,,,0.02,0.000000,,2013-03-12 05:32:00,
2013-03-11 22:42:00,47.0,47.0,-100.00,ESE,122,0.0,0.0,100,0.01,,,0.02,0.000000,,2013-03-12 05:42:00,
2013-03-11 22:52:00,47.0,47.0,-100.00,ESE,122,0.0,0.0,100,0.01,,,0.02,0.000000,,2013-03-12 05:52:00,
2013-03-11 23:01:00,47.0,47.0,-100.00,ESE,122,0.0,0.0,100,0.01,,,0.02,0.000000,,2013-03-12 06:01:00,
2013-03-11 23:32:00,46.0,46.0,-100.00,SW,214,0.0,0.0,100,0.00,,,0.02,0.000000,,2013-03-12 06:32:00,
2013-03-11 23:42:00,46.0,46.0,-100.00,SW,214,0.0,0.0,100,0.00,,,0.02,0.000000,,2013-03-12 06:42:00,
2013-03-11 23:52:00,46.0,46.0,-100.00,SW,214,0.0,0.0,100,0.00,,,0.02,0.000000,,2013-03-12 06:52:00,